sensor_id;sensor_type;location;lat;lon;timestamp;P1;durP1;ratioP1;P2;durP2;ratioP2
4674;SDS011;2351;50.812;12.872;2023-08-08T00:01:49;7.60;;;3.20;;
4674;SDS011;2351;50.812;12.872;2023-08-08T00:04:21;5.87;;;3.10;;
4674;SDS011;2351;50.812;12.872;2023-08-08T00:06:53;3.93;;;2.40;;
4674;SDS011;2351;50.812;12.872;2023-08-08T00:09:26;8.40;;;3.07;;
4674;SDS011;2351;50.812;12.872;2023-08-08T00:11:58;10.33;;;3.00;;
4674;SDS011;2351;50.812;12.872;2023-08-08T00:14:29;8.50;;;3.10;;
4674;SDS011;2351;50.812;12.872;2023-08-08T00:17:01;6.83;;;3.47;;
4674;SDS011;2351;50.812;12.872;2023-08-08T00:19:33;5.63;;;3.57;;
4674;SDS011;2351;50.812;12.872;2023-08-08T00:22:05;4.87;;;2.50;;
4674;SDS011;2351;50.812;12.872;2023-08-08T00:24:38;12.63;;;3.00;;
4674;SDS011;2351;50.812;12.872;2023-08-08T00:27:10;5.33;;;3.00;;
4674;SDS011;2351;50.812;12.872;2023-08-08T00:29:42;5.70;;;3.00;;
4674;SDS011;2351;50.812;12.872;2023-08-08T00:32:13;7.60;;;3.10;;
4674;SDS011;2351;50.812;12.872;2023-08-08T00:34:45;7.70;;;3.17;;
4674;SDS011;2351;50.812;12.872;2023-08-08T00:37:17;4.43;;;3.07;;
4674;SDS011;2351;50.812;12.872;2023-08-08T00:39:50;7.13;;;2.63;;
4674;SDS011;2351;50.812;12.872;2023-08-08T00:42:21;4.07;;;2.73;;
4674;SDS011;2351;50.812;12.872;2023-08-08T00:44:53;6.20;;;3.57;;
4674;SDS011;2351;50.812;12.872;2023-08-08T00:47:31;9.10;;;2.93;;
4674;SDS011;2351;50.812;12.872;2023-08-08T00:50:05;2.97;;;2.77;;
4674;SDS011;2351;50.812;12.872;2023-08-08T00:52:37;4.60;;;2.90;;
4674;SDS011;2351;50.812;12.872;2023-08-08T00:55:11;5.90;;;2.60;;
4674;SDS011;2351;50.812;12.872;2023-08-08T00:57:44;5.97;;;3.47;;
4674;SDS011;2351;50.812;12.872;2023-08-08T01:00:16;3.00;;;2.70;;
4674;SDS011;2351;50.812;12.872;2023-08-08T01:02:48;6.43;;;3.03;;
4674;SDS011;2351;50.812;12.872;2023-08-08T01:05:20;5.73;;;3.10;;
4674;SDS011;2351;50.812;12.872;2023-08-08T01:07:52;5.77;;;3.03;;
4674;SDS011;2351;50.812;12.872;2023-08-08T01:10:31;6.50;;;3.80;;
4674;SDS011;2351;50.812;12.872;2023-08-08T01:13:06;6.13;;;3.60;;
4674;SDS011;2351;50.812;12.872;2023-08-08T01:15:41;12.80;;;2.77;;
4674;SDS011;2351;50.812;12.872;2023-08-08T01:18:14;7.47;;;2.27;;
4674;SDS011;2351;50.812;12.872;2023-08-08T01:20:47;6.00;;;2.57;;
4674;SDS011;2351;50.812;12.872;2023-08-08T01:23:23;6.40;;;2.83;;
4674;SDS011;2351;50.812;12.872;2023-08-08T01:25:58;10.23;;;3.90;;
4674;SDS011;2351;50.812;12.872;2023-08-08T01:28:31;6.47;;;3.20;;
4674;SDS011;2351;50.812;12.872;2023-08-08T01:31:04;3.27;;;2.83;;
4674;SDS011;2351;50.812;12.872;2023-08-08T01:33:37;4.83;;;2.73;;
4674;SDS011;2351;50.812;12.872;2023-08-08T01:36:10;3.17;;;2.77;;
4674;SDS011;2351;50.812;12.872;2023-08-08T01:38:48;6.73;;;3.00;;
4674;SDS011;2351;50.812;12.872;2023-08-08T01:41:23;6.63;;;3.03;;
4674;SDS011;2351;50.812;12.872;2023-08-08T01:43:55;4.40;;;2.90;;
4674;SDS011;2351;50.812;12.872;2023-08-08T01:46:27;5.83;;;3.27;;
4674;SDS011;2351;50.812;12.872;2023-08-08T01:48:59;5.43;;;2.87;;
4674;SDS011;2351;50.812;12.872;2023-08-08T01:51:31;3.03;;;2.37;;
4674;SDS011;2351;50.812;12.872;2023-08-08T01:54:03;3.70;;;2.90;;
4674;SDS011;2351;50.812;12.872;2023-08-08T01:56:36;6.43;;;3.67;;
4674;SDS011;2351;50.812;12.872;2023-08-08T01:59:08;4.10;;;2.47;;
4674;SDS011;2351;50.812;12.872;2023-08-08T02:01:40;6.03;;;2.70;;
4674;SDS011;2351;50.812;12.872;2023-08-08T02:04:11;5.43;;;2.57;;
4674;SDS011;2351;50.812;12.872;2023-08-08T02:06:43;5.10;;;2.73;;
4674;SDS011;2351;50.812;12.872;2023-08-08T02:09:15;3.43;;;2.57;;
4674;SDS011;2351;50.812;12.872;2023-08-08T02:11:48;4.57;;;2.70;;
4674;SDS011;2351;50.812;12.872;2023-08-08T02:14:20;6.17;;;2.47;;
4674;SDS011;2351;50.812;12.872;2023-08-08T02:16:52;6.10;;;3.20;;
4674;SDS011;2351;50.812;12.872;2023-08-08T02:19:23;6.80;;;2.40;;
4674;SDS011;2351;50.812;12.872;2023-08-08T02:21:55;5.67;;;2.90;;
4674;SDS011;2351;50.812;12.872;2023-08-08T02:24:27;8.63;;;2.67;;
4674;SDS011;2351;50.812;12.872;2023-08-08T02:27:00;2.30;;;2.10;;
4674;SDS011;2351;50.812;12.872;2023-08-08T02:29:32;4.13;;;2.80;;
4674;SDS011;2351;50.812;12.872;2023-08-08T02:32:04;3.20;;;2.33;;
4674;SDS011;2351;50.812;12.872;2023-08-08T02:34:36;4.50;;;2.53;;
4674;SDS011;2351;50.812;12.872;2023-08-08T02:37:08;3.30;;;2.50;;
4674;SDS011;2351;50.812;12.872;2023-08-08T02:39:40;4.80;;;2.87;;
4674;SDS011;2351;50.812;12.872;2023-08-08T02:42:14;13.13;;;2.57;;
4674;SDS011;2351;50.812;12.872;2023-08-08T02:44:45;3.27;;;2.70;;
4674;SDS011;2351;50.812;12.872;2023-08-08T02:47:17;11.33;;;2.40;;
4674;SDS011;2351;50.812;12.872;2023-08-08T02:49:49;3.43;;;2.63;;
4674;SDS011;2351;50.812;12.872;2023-08-08T02:52:20;3.17;;;2.57;;
4674;SDS011;2351;50.812;12.872;2023-08-08T02:54:52;5.70;;;2.60;;
4674;SDS011;2351;50.812;12.872;2023-08-08T02:57:25;3.43;;;2.70;;
4674;SDS011;2351;50.812;12.872;2023-08-08T02:59:57;2.70;;;2.23;;
4674;SDS011;2351;50.812;12.872;2023-08-08T03:02:29;4.97;;;2.70;;
4674;SDS011;2351;50.812;12.872;2023-08-08T03:05:01;9.30;;;2.97;;
4674;SDS011;2351;50.812;12.872;2023-08-08T03:07:33;7.80;;;3.17;;
4674;SDS011;2351;50.812;12.872;2023-08-08T03:10:04;3.90;;;2.57;;
4674;SDS011;2351;50.812;12.872;2023-08-08T03:12:38;3.73;;;2.73;;
4674;SDS011;2351;50.812;12.872;2023-08-08T03:15:11;8.30;;;3.03;;
4674;SDS011;2351;50.812;12.872;2023-08-08T03:17:43;6.67;;;2.90;;
4674;SDS011;2351;50.812;12.872;2023-08-08T03:20:15;5.07;;;2.83;;
4674;SDS011;2351;50.812;12.872;2023-08-08T03:22:47;4.23;;;2.40;;
4674;SDS011;2351;50.812;12.872;2023-08-08T03:25:18;5.97;;;2.80;;
4674;SDS011;2351;50.812;12.872;2023-08-08T03:27:52;5.93;;;2.70;;
4674;SDS011;2351;50.812;12.872;2023-08-08T03:30:23;7.43;;;3.27;;
4674;SDS011;2351;50.812;12.872;2023-08-08T03:32:55;3.30;;;2.63;;
4674;SDS011;2351;50.812;12.872;2023-08-08T03:35:27;7.40;;;2.97;;
4674;SDS011;2351;50.812;12.872;2023-08-08T03:37:58;4.97;;;2.87;;
4674;SDS011;2351;50.812;12.872;2023-08-08T03:40:30;7.10;;;3.60;;
4674;SDS011;2351;50.812;12.872;2023-08-08T03:43:03;5.53;;;3.23;;
4674;SDS011;2351;50.812;12.872;2023-08-08T03:45:35;7.17;;;3.30;;
4674;SDS011;2351;50.812;12.872;2023-08-08T03:48:07;7.77;;;3.50;;
4674;SDS011;2351;50.812;12.872;2023-08-08T03:50:39;3.53;;;3.20;;
4674;SDS011;2351;50.812;12.872;2023-08-08T03:53:11;5.03;;;2.70;;
4674;SDS011;2351;50.812;12.872;2023-08-08T03:55:43;3.73;;;2.70;;
4674;SDS011;2351;50.812;12.872;2023-08-08T03:58:16;5.40;;;3.30;;
4674;SDS011;2351;50.812;12.872;2023-08-08T04:00:47;3.47;;;2.90;;
4674;SDS011;2351;50.812;12.872;2023-08-08T04:03:19;4.50;;;2.43;;
4674;SDS011;2351;50.812;12.872;2023-08-08T04:05:51;2.53;;;2.33;;
4674;SDS011;2351;50.812;12.872;2023-08-08T04:08:22;5.60;;;2.97;;
4674;SDS011;2351;50.812;12.872;2023-08-08T04:10:54;3.67;;;3.27;;
4674;SDS011;2351;50.812;12.872;2023-08-08T04:13:27;7.03;;;3.50;;
4674;SDS011;2351;50.812;12.872;2023-08-08T04:15:59;7.20;;;3.40;;
4674;SDS011;2351;50.812;12.872;2023-08-08T04:18:31;3.33;;;2.60;;
4674;SDS011;2351;50.812;12.872;2023-08-08T04:21:03;3.20;;;2.63;;
4674;SDS011;2351;50.812;12.872;2023-08-08T04:23:35;3.97;;;3.30;;
4674;SDS011;2351;50.812;12.872;2023-08-08T04:26:07;6.20;;;3.40;;
4674;SDS011;2351;50.812;12.872;2023-08-08T04:28:40;9.00;;;3.73;;
4674;SDS011;2351;50.812;12.872;2023-08-08T04:31:12;9.20;;;3.13;;
4674;SDS011;2351;50.812;12.872;2023-08-08T04:33:44;5.27;;;2.87;;
4674;SDS011;2351;50.812;12.872;2023-08-08T04:36:16;12.17;;;3.90;;
4674;SDS011;2351;50.812;12.872;2023-08-08T04:38:48;6.63;;;3.57;;
4674;SDS011;2351;50.812;12.872;2023-08-08T04:41:19;5.67;;;2.77;;
4674;SDS011;2351;50.812;12.872;2023-08-08T04:43:52;3.20;;;2.90;;
4674;SDS011;2351;50.812;12.872;2023-08-08T04:46:24;3.40;;;2.73;;
4674;SDS011;2351;50.812;12.872;2023-08-08T04:48:56;8.87;;;2.47;;
4674;SDS011;2351;50.812;12.872;2023-08-08T04:51:28;8.27;;;3.33;;
4674;SDS011;2351;50.812;12.872;2023-08-08T04:53:59;7.20;;;3.67;;
4674;SDS011;2351;50.812;12.872;2023-08-08T04:56:31;3.73;;;2.60;;
4674;SDS011;2351;50.812;12.872;2023-08-08T04:59:04;7.63;;;2.73;;
4674;SDS011;2351;50.812;12.872;2023-08-08T05:01:36;8.83;;;4.60;;
4674;SDS011;2351;50.812;12.872;2023-08-08T05:04:08;4.83;;;3.40;;
4674;SDS011;2351;50.812;12.872;2023-08-08T05:06:40;3.83;;;3.20;;
4674;SDS011;2351;50.812;12.872;2023-08-08T05:09:12;3.23;;;2.33;;
4674;SDS011;2351;50.812;12.872;2023-08-08T05:11:43;9.03;;;2.73;;
4674;SDS011;2351;50.812;12.872;2023-08-08T05:14:16;4.10;;;2.50;;
4674;SDS011;2351;50.812;12.872;2023-08-08T05:16:48;5.60;;;2.33;;
4674;SDS011;2351;50.812;12.872;2023-08-08T05:19:20;3.37;;;2.60;;
4674;SDS011;2351;50.812;12.872;2023-08-08T05:21:52;3.23;;;2.60;;
4674;SDS011;2351;50.812;12.872;2023-08-08T05:24:24;3.63;;;2.20;;
4674;SDS011;2351;50.812;12.872;2023-08-08T05:26:56;4.80;;;2.97;;
4674;SDS011;2351;50.812;12.872;2023-08-08T05:29:29;4.40;;;2.60;;
4674;SDS011;2351;50.812;12.872;2023-08-08T05:32:01;4.83;;;2.73;;
4674;SDS011;2351;50.812;12.872;2023-08-08T05:34:34;4.03;;;2.77;;
4674;SDS011;2351;50.812;12.872;2023-08-08T05:37:06;7.00;;;2.53;;
4674;SDS011;2351;50.812;12.872;2023-08-08T05:39:38;5.50;;;2.67;;
4674;SDS011;2351;50.812;12.872;2023-08-08T05:42:09;3.53;;;2.40;;
4674;SDS011;2351;50.812;12.872;2023-08-08T05:44:42;3.77;;;2.63;;
4674;SDS011;2351;50.812;12.872;2023-08-08T05:47:14;3.43;;;2.23;;
4674;SDS011;2351;50.812;12.872;2023-08-08T05:49:46;5.00;;;2.80;;
4674;SDS011;2351;50.812;12.872;2023-08-08T05:52:18;3.83;;;2.07;;
4674;SDS011;2351;50.812;12.872;2023-08-08T05:54:51;5.40;;;2.27;;
4674;SDS011;2351;50.812;12.872;2023-08-08T05:57:23;2.83;;;2.43;;
4674;SDS011;2351;50.812;12.872;2023-08-08T05:59:56;4.00;;;2.83;;
4674;SDS011;2351;50.812;12.872;2023-08-08T06:02:28;4.43;;;2.33;;
4674;SDS011;2351;50.812;12.872;2023-08-08T06:05:00;2.73;;;2.23;;
4674;SDS011;2351;50.812;12.872;2023-08-08T06:07:31;4.33;;;2.80;;
4674;SDS011;2351;50.812;12.872;2023-08-08T06:10:04;8.90;;;3.20;;
4674;SDS011;2351;50.812;12.872;2023-08-08T06:12:36;5.10;;;3.03;;
4674;SDS011;2351;50.812;12.872;2023-08-08T06:15:09;8.07;;;2.80;;
4674;SDS011;2351;50.812;12.872;2023-08-08T06:17:41;3.90;;;2.60;;
4674;SDS011;2351;50.812;12.872;2023-08-08T06:20:13;3.80;;;3.00;;
4674;SDS011;2351;50.812;12.872;2023-08-08T06:22:45;6.27;;;3.07;;
4674;SDS011;2351;50.812;12.872;2023-08-08T06:25:17;4.80;;;2.30;;
4674;SDS011;2351;50.812;12.872;2023-08-08T06:27:49;6.53;;;2.80;;
4674;SDS011;2351;50.812;12.872;2023-08-08T06:30:22;2.93;;;2.57;;
4674;SDS011;2351;50.812;12.872;2023-08-08T06:32:53;4.70;;;2.73;;
4674;SDS011;2351;50.812;12.872;2023-08-08T06:35:25;4.17;;;2.43;;
4674;SDS011;2351;50.812;12.872;2023-08-08T06:37:57;3.63;;;2.70;;
4674;SDS011;2351;50.812;12.872;2023-08-08T06:40:29;8.13;;;2.67;;
4674;SDS011;2351;50.812;12.872;2023-08-08T06:43:00;5.23;;;2.63;;
4674;SDS011;2351;50.812;12.872;2023-08-08T06:45:34;3.23;;;2.40;;
4674;SDS011;2351;50.812;12.872;2023-08-08T06:48:06;4.00;;;2.37;;
4674;SDS011;2351;50.812;12.872;2023-08-08T06:50:38;3.57;;;2.57;;
4674;SDS011;2351;50.812;12.872;2023-08-08T06:53:10;4.10;;;2.30;;
4674;SDS011;2351;50.812;12.872;2023-08-08T06:55:41;5.70;;;2.90;;
4674;SDS011;2351;50.812;12.872;2023-08-08T06:58:13;6.83;;;3.30;;
4674;SDS011;2351;50.812;12.872;2023-08-08T07:00:46;7.40;;;3.30;;
4674;SDS011;2351;50.812;12.872;2023-08-08T07:03:18;3.30;;;3.00;;
4674;SDS011;2351;50.812;12.872;2023-08-08T07:05:50;2.73;;;2.43;;
4674;SDS011;2351;50.812;12.872;2023-08-08T07:08:22;3.97;;;2.87;;
4674;SDS011;2351;50.812;12.872;2023-08-08T07:10:54;3.27;;;2.30;;
4674;SDS011;2351;50.812;12.872;2023-08-08T07:13:25;9.03;;;3.63;;
4674;SDS011;2351;50.812;12.872;2023-08-08T07:15:58;3.97;;;3.00;;
4674;SDS011;2351;50.812;12.872;2023-08-08T07:18:30;4.07;;;3.00;;
4674;SDS011;2351;50.812;12.872;2023-08-08T07:21:02;5.70;;;2.47;;
4674;SDS011;2351;50.812;12.872;2023-08-08T07:23:34;7.17;;;2.47;;
4674;SDS011;2351;50.812;12.872;2023-08-08T07:26:06;4.93;;;3.20;;
4674;SDS011;2351;50.812;12.872;2023-08-08T07:28:38;4.17;;;3.07;;
4674;SDS011;2351;50.812;12.872;2023-08-08T07:31:11;3.67;;;2.77;;
4674;SDS011;2351;50.812;12.872;2023-08-08T07:33:43;5.47;;;2.80;;
4674;SDS011;2351;50.812;12.872;2023-08-08T07:36:15;6.77;;;2.70;;
4674;SDS011;2351;50.812;12.872;2023-08-08T07:38:46;6.27;;;2.57;;
4674;SDS011;2351;50.812;12.872;2023-08-08T07:41:19;4.07;;;2.93;;
4674;SDS011;2351;50.812;12.872;2023-08-08T07:43:54;3.00;;;2.70;;
4674;SDS011;2351;50.812;12.872;2023-08-08T07:46:27;5.03;;;3.07;;
4674;SDS011;2351;50.812;12.872;2023-08-08T07:48:59;6.60;;;2.43;;
4674;SDS011;2351;50.812;12.872;2023-08-08T07:51:33;5.37;;;2.40;;
4674;SDS011;2351;50.812;12.872;2023-08-08T07:54:05;3.53;;;2.87;;
4674;SDS011;2351;50.812;12.872;2023-08-08T07:56:38;14.37;;;3.60;;
4674;SDS011;2351;50.812;12.872;2023-08-08T07:59:10;7.23;;;3.30;;
4674;SDS011;2351;50.812;12.872;2023-08-08T08:01:43;4.80;;;3.03;;
4674;SDS011;2351;50.812;12.872;2023-08-08T08:04:15;4.07;;;3.10;;
4674;SDS011;2351;50.812;12.872;2023-08-08T08:06:47;3.23;;;2.83;;
4674;SDS011;2351;50.812;12.872;2023-08-08T08:09:19;3.13;;;2.53;;
4674;SDS011;2351;50.812;12.872;2023-08-08T08:11:50;5.70;;;2.77;;
4674;SDS011;2351;50.812;12.872;2023-08-08T08:14:22;6.70;;;2.70;;
4674;SDS011;2351;50.812;12.872;2023-08-08T08:16:56;3.10;;;2.43;;
4674;SDS011;2351;50.812;12.872;2023-08-08T08:19:27;15.10;;;2.90;;
4674;SDS011;2351;50.812;12.872;2023-08-08T08:21:59;3.13;;;2.83;;
4674;SDS011;2351;50.812;12.872;2023-08-08T08:24:31;3.27;;;2.93;;
4674;SDS011;2351;50.812;12.872;2023-08-08T08:27:03;5.00;;;2.30;;
4674;SDS011;2351;50.812;12.872;2023-08-08T08:29:35;2.80;;;2.60;;
4674;SDS011;2351;50.812;12.872;2023-08-08T08:32:08;2.20;;;2.10;;
4674;SDS011;2351;50.812;12.872;2023-08-08T08:34:40;5.47;;;3.00;;
4674;SDS011;2351;50.812;12.872;2023-08-08T08:37:11;3.00;;;2.50;;
4674;SDS011;2351;50.812;12.872;2023-08-08T08:39:43;12.13;;;3.13;;
4674;SDS011;2351;50.812;12.872;2023-08-08T08:42:15;3.47;;;2.30;;
4674;SDS011;2351;50.812;12.872;2023-08-08T08:44:48;4.90;;;2.50;;
4674;SDS011;2351;50.812;12.872;2023-08-08T08:47:23;3.10;;;2.60;;
4674;SDS011;2351;50.812;12.872;2023-08-08T08:49:56;2.87;;;2.23;;
4674;SDS011;2351;50.812;12.872;2023-08-08T08:52:29;4.03;;;2.40;;
4674;SDS011;2351;50.812;12.872;2023-08-08T08:55:01;3.03;;;2.27;;
4674;SDS011;2351;50.812;12.872;2023-08-08T08:57:35;8.37;;;3.00;;
4674;SDS011;2351;50.812;12.872;2023-08-08T09:00:08;6.63;;;2.40;;
4674;SDS011;2351;50.812;12.872;2023-08-08T09:02:42;5.83;;;2.40;;
4674;SDS011;2351;50.812;12.872;2023-08-08T09:05:14;4.40;;;2.37;;
4674;SDS011;2351;50.812;12.872;2023-08-08T09:07:48;5.03;;;2.47;;
4674;SDS011;2351;50.812;12.872;2023-08-08T09:10:22;9.43;;;2.27;;
4674;SDS011;2351;50.812;12.872;2023-08-08T09:12:56;2.07;;;1.93;;
4674;SDS011;2351;50.812;12.872;2023-08-08T09:15:29;2.50;;;2.30;;
4674;SDS011;2351;50.812;12.872;2023-08-08T09:18:03;6.80;;;2.57;;
4674;SDS011;2351;50.812;12.872;2023-08-08T09:20:36;3.07;;;2.23;;
4674;SDS011;2351;50.812;12.872;2023-08-08T09:23:08;3.90;;;2.37;;
4674;SDS011;2351;50.812;12.872;2023-08-08T09:25:40;6.10;;;2.30;;
4674;SDS011;2351;50.812;12.872;2023-08-08T09:28:12;6.93;;;2.30;;
4674;SDS011;2351;50.812;12.872;2023-08-08T09:30:44;2.90;;;2.23;;
4674;SDS011;2351;50.812;12.872;2023-08-08T09:33:18;5.07;;;2.83;;
4674;SDS011;2351;50.812;12.872;2023-08-08T09:35:52;17.20;;;3.07;;
4674;SDS011;2351;50.812;12.872;2023-08-08T09:38:25;7.37;;;2.63;;
4674;SDS011;2351;50.812;12.872;2023-08-08T09:40:57;5.30;;;1.97;;
4674;SDS011;2351;50.812;12.872;2023-08-08T09:43:29;2.20;;;2.10;;
4674;SDS011;2351;50.812;12.872;2023-08-08T09:46:01;2.70;;;2.50;;
4674;SDS011;2351;50.812;12.872;2023-08-08T09:48:34;2.87;;;2.00;;
4674;SDS011;2351;50.812;12.872;2023-08-08T09:51:08;7.73;;;2.73;;
4674;SDS011;2351;50.812;12.872;2023-08-08T09:53:40;6.93;;;2.80;;
4674;SDS011;2351;50.812;12.872;2023-08-08T09:56:14;2.50;;;2.30;;
4674;SDS011;2351;50.812;12.872;2023-08-08T09:58:46;2.37;;;2.17;;
4674;SDS011;2351;50.812;12.872;2023-08-08T10:01:19;3.27;;;2.10;;
4674;SDS011;2351;50.812;12.872;2023-08-08T10:03:53;5.20;;;2.27;;
4674;SDS011;2351;50.812;12.872;2023-08-08T10:06:25;2.77;;;1.77;;
4674;SDS011;2351;50.812;12.872;2023-08-08T10:08:57;5.30;;;1.90;;
4674;SDS011;2351;50.812;12.872;2023-08-08T10:11:30;2.83;;;1.90;;
4674;SDS011;2351;50.812;12.872;2023-08-08T10:14:03;3.27;;;1.87;;
4674;SDS011;2351;50.812;12.872;2023-08-08T10:16:35;1.80;;;1.70;;
4674;SDS011;2351;50.812;12.872;2023-08-08T10:19:10;2.23;;;2.03;;
4674;SDS011;2351;50.812;12.872;2023-08-08T10:21:43;2.50;;;1.93;;
4674;SDS011;2351;50.812;12.872;2023-08-08T10:24:19;5.10;;;2.20;;
4674;SDS011;2351;50.812;12.872;2023-08-08T10:26:52;3.00;;;2.27;;
4674;SDS011;2351;50.812;12.872;2023-08-08T10:29:25;5.97;;;2.30;;
4674;SDS011;2351;50.812;12.872;2023-08-08T10:31:58;6.47;;;2.00;;
4674;SDS011;2351;50.812;12.872;2023-08-08T10:34:38;6.17;;;2.43;;
4674;SDS011;2351;50.812;12.872;2023-08-08T10:37:12;2.40;;;1.70;;
4674;SDS011;2351;50.812;12.872;2023-08-08T10:39:50;6.43;;;2.40;;
4674;SDS011;2351;50.812;12.872;2023-08-08T10:42:23;2.53;;;1.90;;
4674;SDS011;2351;50.812;12.872;2023-08-08T10:44:57;2.20;;;2.10;;
4674;SDS011;2351;50.812;12.872;2023-08-08T10:47:30;1.60;;;1.50;;
4674;SDS011;2351;50.812;12.872;2023-08-08T10:50:06;1.80;;;1.70;;
4674;SDS011;2351;50.812;12.872;2023-08-08T10:52:51;4.00;;;1.60;;
4674;SDS011;2351;50.812;12.872;2023-08-08T10:55:26;2.83;;;1.93;;
4674;SDS011;2351;50.812;12.872;2023-08-08T10:57:59;2.10;;;1.90;;
4674;SDS011;2351;50.812;12.872;2023-08-08T11:00:37;3.67;;;2.07;;
4674;SDS011;2351;50.812;12.872;2023-08-08T11:03:10;2.00;;;1.70;;
4674;SDS011;2351;50.812;12.872;2023-08-08T11:05:45;2.63;;;1.90;;
4674;SDS011;2351;50.812;12.872;2023-08-08T11:08:18;2.03;;;1.83;;
4674;SDS011;2351;50.812;12.872;2023-08-08T11:10:52;4.53;;;1.83;;
4674;SDS011;2351;50.812;12.872;2023-08-08T11:13:24;3.47;;;1.77;;
4674;SDS011;2351;50.812;12.872;2023-08-08T11:15:56;8.80;;;1.90;;
4674;SDS011;2351;50.812;12.872;2023-08-08T11:18:28;1.63;;;1.50;;
4674;SDS011;2351;50.812;12.872;2023-08-08T11:21:09;2.57;;;1.40;;
4674;SDS011;2351;50.812;12.872;2023-08-08T11:23:45;4.13;;;1.70;;
4674;SDS011;2351;50.812;12.872;2023-08-08T11:26:17;1.80;;;1.13;;
4674;SDS011;2351;50.812;12.872;2023-08-08T11:28:50;5.70;;;1.50;;
4674;SDS011;2351;50.812;12.872;2023-08-08T11:31:22;1.67;;;1.53;;
4674;SDS011;2351;50.812;12.872;2023-08-08T11:33:56;3.17;;;1.87;;
4674;SDS011;2351;50.812;12.872;2023-08-08T11:36:31;1.43;;;1.33;;
4674;SDS011;2351;50.812;12.872;2023-08-08T11:39:04;3.93;;;1.60;;
4674;SDS011;2351;50.812;12.872;2023-08-08T11:41:39;2.53;;;1.33;;
4674;SDS011;2351;50.812;12.872;2023-08-08T11:44:12;2.83;;;1.70;;
4674;SDS011;2351;50.812;12.872;2023-08-08T11:46:45;2.80;;;1.53;;
4674;SDS011;2351;50.812;12.872;2023-08-08T11:49:17;1.70;;;1.60;;
4674;SDS011;2351;50.812;12.872;2023-08-08T11:51:51;3.13;;;1.77;;
4674;SDS011;2351;50.812;12.872;2023-08-08T11:54:26;2.70;;;1.93;;
4674;SDS011;2351;50.812;12.872;2023-08-08T11:56:59;2.30;;;1.30;;
4674;SDS011;2351;50.812;12.872;2023-08-08T11:59:32;4.37;;;1.50;;
4674;SDS011;2351;50.812;12.872;2023-08-08T12:02:03;2.53;;;1.63;;
4674;SDS011;2351;50.812;12.872;2023-08-08T12:04:35;1.47;;;1.37;;
4674;SDS011;2351;50.812;12.872;2023-08-08T12:07:08;1.93;;;1.73;;
4674;SDS011;2351;50.812;12.872;2023-08-08T12:09:41;2.67;;;1.83;;
4674;SDS011;2351;50.812;12.872;2023-08-08T12:12:13;1.80;;;1.43;;
4674;SDS011;2351;50.812;12.872;2023-08-08T12:14:45;1.43;;;1.33;;
4674;SDS011;2351;50.812;12.872;2023-08-08T12:17:20;3.10;;;1.63;;
4674;SDS011;2351;50.812;12.872;2023-08-08T12:19:52;1.87;;;1.77;;
4674;SDS011;2351;50.812;12.872;2023-08-08T12:22:25;1.63;;;1.53;;
4674;SDS011;2351;50.812;12.872;2023-08-08T12:24:57;6.93;;;1.53;;
4674;SDS011;2351;50.812;12.872;2023-08-08T12:27:29;1.50;;;1.40;;
4674;SDS011;2351;50.812;12.872;2023-08-08T12:30:01;5.23;;;1.63;;
4674;SDS011;2351;50.812;12.872;2023-08-08T12:32:33;2.63;;;1.90;;
4674;SDS011;2351;50.812;12.872;2023-08-08T12:35:05;4.47;;;1.93;;
4674;SDS011;2351;50.812;12.872;2023-08-08T12:37:40;1.57;;;1.47;;
4674;SDS011;2351;50.812;12.872;2023-08-08T12:40:12;1.90;;;1.23;;
4674;SDS011;2351;50.812;12.872;2023-08-08T12:42:44;5.87;;;2.00;;
4674;SDS011;2351;50.812;12.872;2023-08-08T12:45:17;3.17;;;1.27;;
4674;SDS011;2351;50.812;12.872;2023-08-08T12:47:55;8.57;;;1.83;;
4674;SDS011;2351;50.812;12.872;2023-08-08T12:50:27;3.07;;;1.47;;
4674;SDS011;2351;50.812;12.872;2023-08-08T12:53:00;1.80;;;1.60;;
4674;SDS011;2351;50.812;12.872;2023-08-08T12:55:34;4.30;;;1.50;;
4674;SDS011;2351;50.812;12.872;2023-08-08T12:58:07;2.03;;;1.60;;
4674;SDS011;2351;50.812;12.872;2023-08-08T13:00:39;2.80;;;1.20;;
4674;SDS011;2351;50.812;12.872;2023-08-08T13:03:11;1.50;;;1.40;;
4674;SDS011;2351;50.812;12.872;2023-08-08T13:05:44;3.37;;;1.50;;
4674;SDS011;2351;50.812;12.872;2023-08-08T13:08:20;2.50;;;1.53;;
4674;SDS011;2351;50.812;12.872;2023-08-08T13:10:52;5.80;;;1.17;;
4674;SDS011;2351;50.812;12.872;2023-08-08T13:13:24;2.57;;;1.37;;
4674;SDS011;2351;50.812;12.872;2023-08-08T13:15:56;1.40;;;1.30;;
4674;SDS011;2351;50.812;12.872;2023-08-08T13:18:28;2.80;;;1.60;;
4674;SDS011;2351;50.812;12.872;2023-08-08T13:21:00;1.97;;;1.20;;
4674;SDS011;2351;50.812;12.872;2023-08-08T13:23:34;2.07;;;1.43;;
4674;SDS011;2351;50.812;12.872;2023-08-08T13:26:05;1.70;;;1.33;;
4674;SDS011;2351;50.812;12.872;2023-08-08T13:28:37;3.97;;;1.50;;
4674;SDS011;2351;50.812;12.872;2023-08-08T13:31:09;3.33;;;1.40;;
4674;SDS011;2351;50.812;12.872;2023-08-08T13:33:41;1.57;;;1.40;;
4674;SDS011;2351;50.812;12.872;2023-08-08T13:36:13;2.50;;;1.50;;
4674;SDS011;2351;50.812;12.872;2023-08-08T13:38:46;1.77;;;1.67;;
4674;SDS011;2351;50.812;12.872;2023-08-08T13:41:18;5.60;;;1.50;;
4674;SDS011;2351;50.812;12.872;2023-08-08T13:43:50;1.57;;;1.47;;
4674;SDS011;2351;50.812;12.872;2023-08-08T13:46:23;1.40;;;1.30;;
4674;SDS011;2351;50.812;12.872;2023-08-08T13:48:56;7.83;;;1.60;;
4674;SDS011;2351;50.812;12.872;2023-08-08T13:51:28;4.63;;;1.30;;
4674;SDS011;2351;50.812;12.872;2023-08-08T13:54:01;3.17;;;1.10;;
4674;SDS011;2351;50.812;12.872;2023-08-08T13:56:33;1.57;;;1.10;;
4674;SDS011;2351;50.812;12.872;2023-08-08T13:59:05;1.33;;;1.23;;
4674;SDS011;2351;50.812;12.872;2023-08-08T14:01:39;1.80;;;1.20;;
4674;SDS011;2351;50.812;12.872;2023-08-08T14:04:11;2.80;;;1.73;;
4674;SDS011;2351;50.812;12.872;2023-08-08T14:06:43;5.60;;;1.53;;
4674;SDS011;2351;50.812;12.872;2023-08-08T14:09:16;4.37;;;1.47;;
4674;SDS011;2351;50.812;12.872;2023-08-08T14:11:49;2.00;;;1.27;;
4674;SDS011;2351;50.812;12.872;2023-08-08T14:14:21;3.40;;;1.40;;
4674;SDS011;2351;50.812;12.872;2023-08-08T14:16:53;2.73;;;1.00;;
4674;SDS011;2351;50.812;12.872;2023-08-08T14:19:25;4.80;;;1.40;;
4674;SDS011;2351;50.812;12.872;2023-08-08T14:21:57;1.20;;;1.10;;
4674;SDS011;2351;50.812;12.872;2023-08-08T14:24:30;2.57;;;1.70;;
4674;SDS011;2351;50.812;12.872;2023-08-08T14:27:02;1.80;;;1.70;;
4674;SDS011;2351;50.812;12.872;2023-08-08T14:29:34;1.43;;;1.33;;
4674;SDS011;2351;50.812;12.872;2023-08-08T14:32:06;1.53;;;1.37;;
4674;SDS011;2351;50.812;12.872;2023-08-08T14:34:38;5.10;;;1.53;;
4674;SDS011;2351;50.812;12.872;2023-08-08T14:37:10;3.23;;;1.30;;
4674;SDS011;2351;50.812;12.872;2023-08-08T14:39:43;2.90;;;1.40;;
4674;SDS011;2351;50.812;12.872;2023-08-08T14:42:15;3.90;;;1.40;;
4674;SDS011;2351;50.812;12.872;2023-08-08T14:44:47;1.47;;;1.40;;
4674;SDS011;2351;50.812;12.872;2023-08-08T14:47:21;2.00;;;1.47;;
4674;SDS011;2351;50.812;12.872;2023-08-08T14:49:53;1.87;;;1.50;;
4674;SDS011;2351;50.812;12.872;2023-08-08T14:52:25;1.33;;;1.23;;
4674;SDS011;2351;50.812;12.872;2023-08-08T14:54:58;1.90;;;1.57;;
4674;SDS011;2351;50.812;12.872;2023-08-08T14:57:30;2.20;;;1.40;;
4674;SDS011;2351;50.812;12.872;2023-08-08T15:00:03;2.07;;;1.10;;
4674;SDS011;2351;50.812;12.872;2023-08-08T15:02:36;1.40;;;1.10;;
4674;SDS011;2351;50.812;12.872;2023-08-08T15:05:08;3.60;;;1.30;;
4674;SDS011;2351;50.812;12.872;2023-08-08T15:07:41;2.87;;;1.43;;
4674;SDS011;2351;50.812;12.872;2023-08-08T15:10:14;2.93;;;1.20;;
4674;SDS011;2351;50.812;12.872;2023-08-08T15:12:46;1.93;;;1.33;;
4674;SDS011;2351;50.812;12.872;2023-08-08T15:15:18;1.50;;;1.40;;
4674;SDS011;2351;50.812;12.872;2023-08-08T15:17:53;7.70;;;1.97;;
4674;SDS011;2351;50.812;12.872;2023-08-08T15:20:24;5.97;;;1.40;;
4674;SDS011;2351;50.812;12.872;2023-08-08T15:22:56;1.90;;;1.80;;
4674;SDS011;2351;50.812;12.872;2023-08-08T15:25:29;1.90;;;1.57;;
4674;SDS011;2351;50.812;12.872;2023-08-08T15:28:01;2.37;;;2.10;;
4674;SDS011;2351;50.812;12.872;2023-08-08T15:30:35;2.40;;;2.00;;
4674;SDS011;2351;50.812;12.872;2023-08-08T15:33:08;1.77;;;1.23;;